首页
METAR-TAF:

METAR-TAF

机场 :

马塔维里国际机场

復活節島, 智利

纬度: 27-09S, 经度: 109-25W, 海拔: 51米

当前天气观测

该预报发布于36分钟前的18:00 UTC
风速15节,风向西北
温度 19°C
湿度 94%
气压 1014 hPa
能見度: 7000
散云层高于1500英尺
散云层高于2000英尺
阴天层高于7000英尺
小雨

METAR: SCIP 171800Z 32015KT 7000 -RA SCT015 SCT020 OVC070 19/18 Q1014 NOSIG

时间: 13:36 (18:36 UTC)

预报

该预报发布于1小时和54分钟前的16:42 UTC
预报有效从17日的 18点(UTC)到 18日的 18点(UTC)
风速13节,风向北转西北
能見度: 7000
散云层高于1500英尺
多云层高于2500英尺
阴天层高于3500英尺
小阵雨
短暂存在
从 17日的 18点(UTC)到 17日的 22点(UTC)
风速18节,风向北转西北,有时为28节阵风
能見度: 3500
散云层高于700英尺
多云层高于1500英尺
阴天层高于2000英尺
成为
从 18日的 00点(UTC)到 18日的 02点(UTC)
风速10节,风向西北
能见度10公里或以上
散云层高于2000英尺
短暂存在
从 18日的 05点(UTC)到 18日的 10点(UTC)
风速15节,风向西
能見度: 7000
多云层高于2000英尺
小阵雨

TAF: SCIP 171642Z 1718/1818 34013KT 7000 -SHRA SCT015 BKN025 OVC035 TX20/1718Z TN16/1813Z TEMPO 1718/1722 34018G28KT 3500 +RA/+SHRA SCT007 BKN015 OVC020 BECMG 1800/1802 31010KT 9999 NSW SCT020 TEMPO 1805/1810 28015KT 7000 -SHRA BKN020

超过4000个机场的气象观测和天气预报(METAR&TAF报告)。

可查询的气象台以黄色和红色小点在地图上表示。

将鼠标移到小点上方,可查看气象台名称。

然后点击查看天气观测和预报。

如需切换地图:点击带黑十字的绿色按钮放大地图;点击带横线的绿色按钮缩小地图;或者点击绿色箭头查看邻近地区的地图。


METAR-TAF: